Carbon Hill, Ohio
Current Conditions -  °F | °C
As of 5:55 PM on Friday 31 Oct 2014 (Local Time) from KUNI Reporting Station
Moderate Rain Moderate Rain  
Wind Chill: 44°   Ceiling: 2100
Heat Index: 44°   Visibility: 7mi
Dew Point: 42°   Wind: 0mph
Humidity: 91%   Direction: NA
Pressure: 29.86"   Gusts: NA
Location:  39.5°N, 82.24°W
Report Text: KUNI 312155Z AUTO 00000KT 7SM RA BKN021 OVC027 07/05 A2986 RMK AO2 P0002 T00670053
Loading
Personal Weather Stations






























Interactive Weather Map
Tropical Storm Tracking
New forecast layout! Learn more

10-Day Weather Forecast

Advertisements
Track Severe Weather on mobile